createdAt,value
2022-08-26T00:02:19.293Z,66.40
2022-08-26T00:04:49.595Z,66.60
2022-08-26T00:07:19.014Z,67.20
2022-08-26T00:09:47.641Z,66.50
2022-08-26T00:12:16.210Z,66.80
2022-08-26T00:14:46.203Z,66.90
2022-08-26T00:17:14.768Z,66.70
2022-08-26T00:19:43.857Z,66.70
2022-08-26T00:22:12.786Z,66.70
2022-08-26T00:24:48.798Z,66.70
2022-08-26T00:27:17.224Z,66.80
2022-08-26T00:29:47.296Z,67.10
2022-08-26T00:32:16.200Z,67.20
2022-08-26T00:34:44.666Z,67.10
2022-08-26T00:37:16.146Z,67.20
2022-08-26T00:39:44.882Z,67.00
2022-08-26T00:42:14.373Z,67.20
2022-08-26T00:44:44.315Z,67.10
2022-08-26T00:47:31.030Z,67.40
2022-08-26T00:50:03.931Z,67.20
2022-08-26T00:52:32.911Z,67.40
2022-08-26T00:55:06.573Z,67.20
2022-08-26T00:57:37.045Z,67.30
2022-08-26T01:00:10.550Z,67.10
2022-08-26T01:02:40.926Z,66.90
2022-08-26T01:05:16.336Z,67.40
2022-08-26T01:07:45.266Z,67.40
2022-08-26T01:10:17.107Z,67.20
2022-08-26T01:12:50.989Z,67.20
2022-08-26T01:15:24.207Z,67.20
2022-08-26T01:17:54.236Z,67.40
2022-08-26T01:20:29.837Z,67.60
2022-08-26T01:23:03.241Z,67.60
2022-08-26T01:25:34.643Z,67.80
2022-08-26T01:28:06.778Z,67.80
2022-08-26T01:30:36.882Z,67.60
2022-08-26T01:33:08.366Z,67.60
2022-08-26T01:35:38.881Z,67.80
2022-08-26T01:38:08.915Z,67.60
2022-08-26T01:40:39.916Z,67.80
2022-08-26T01:43:10.535Z,67.80
2022-08-26T01:45:42.287Z,67.90
2022-08-26T01:48:16.178Z,67.60
2022-08-26T01:50:46.385Z,67.90
2022-08-26T01:53:19.872Z,67.80
2022-08-26T01:55:53.071Z,68.00
2022-08-26T01:58:24.878Z,68.10
2022-08-26T02:00:53.786Z,67.80
2022-08-26T02:03:22.766Z,68.00
2022-08-26T02:05:56.821Z,68.00
2022-08-26T02:08:31.179Z,68.00
2022-08-26T02:11:00.032Z,68.10
2022-08-26T02:13:31.494Z,68.20
2022-08-26T02:16:01.291Z,68.90
2022-08-26T02:18:34.334Z,68.10
2022-08-26T02:21:03.137Z,68.20
2022-08-26T02:23:36.674Z,68.20
2022-08-26T02:26:11.448Z,68.30
2022-08-26T02:28:46.616Z,68.20
2022-08-26T02:31:15.195Z,68.30
2022-08-26T02:33:44.048Z,68.30
2022-08-26T02:36:13.378Z,68.50
2022-08-26T02:38:43.404Z,68.50
2022-08-26T02:41:14.541Z,68.30
2022-08-26T02:43:43.174Z,68.30
2022-08-26T02:46:12.289Z,68.40
2022-08-26T02:48:49.908Z,68.30
2022-08-26T02:51:22.597Z,68.30
2022-08-26T02:53:54.941Z,68.50
2022-08-26T02:56:24.046Z,68.50
2022-08-26T02:58:52.524Z,68.50
2022-08-26T03:01:24.230Z,68.30
2022-08-26T03:03:53.044Z,68.60
2022-08-26T03:06:21.700Z,68.60
2022-08-26T03:08:50.501Z,68.60
2022-08-26T03:11:21.385Z,68.70
2022-08-26T03:13:50.630Z,69.00
2022-08-26T03:16:20.857Z,69.30
2022-08-26T03:18:52.288Z,69.30
2022-08-26T03:21:22.547Z,69.20
2022-08-26T03:23:51.134Z,68.90
2022-08-26T03:26:21.275Z,69.20
2022-08-26T03:29:07.721Z,69.20
2022-08-26T03:31:38.306Z,69.10
2022-08-26T03:34:06.781Z,69.20
2022-08-26T03:36:35.246Z,69.30
2022-08-26T03:39:03.823Z,70.50
2022-08-26T03:41:36.043Z,69.30
2022-08-26T03:44:05.470Z,69.20
2022-08-26T03:46:34.667Z,69.10
2022-08-26T03:49:05.360Z,69.10
2022-08-26T03:51:34.893Z,69.40
2022-08-26T03:54:08.550Z,69.10
2022-08-26T03:56:38.663Z,69.30
2022-08-26T03:59:08.645Z,69.20
2022-08-26T04:01:37.547Z,69.50
2022-08-26T04:04:06.824Z,69.50
2022-08-26T04:06:39.199Z,69.30
2022-08-26T04:09:10.094Z,69.70
2022-08-26T04:11:40.787Z,69.70
2022-08-26T04:14:13.603Z,69.70
2022-08-26T04:16:42.784Z,69.60
2022-08-26T04:19:12.545Z,69.40
2022-08-26T04:21:41.412Z,69.20
2022-08-26T04:24:12.325Z,69.90
2022-08-26T04:26:43.732Z,69.70
2022-08-26T04:29:15.303Z,69.40
2022-08-26T04:31:44.028Z,69.50
2022-08-26T04:34:14.161Z,69.60
2022-08-26T04:36:44.243Z,69.50
2022-08-26T04:39:16.723Z,69.50
2022-08-26T04:41:50.341Z,69.60
2022-08-26T04:44:19.279Z,70.10
2022-08-26T04:46:47.848Z,69.70
2022-08-26T04:49:17.525Z,69.50
2022-08-26T04:51:47.279Z,69.90
2022-08-26T04:54:16.388Z,69.70
2022-08-26T04:56:49.651Z,69.70
2022-08-26T04:59:18.742Z,69.60
2022-08-26T05:01:49.671Z,69.60
2022-08-26T05:04:19.792Z,69.80
2022-08-26T05:06:50.617Z,69.50
2022-08-26T05:09:21.588Z,69.40
2022-08-26T05:11:52.147Z,69.40
2022-08-26T05:14:21.091Z,69.40
2022-08-26T05:16:50.777Z,69.40
2022-08-26T05:19:19.672Z,69.40
2022-08-26T05:21:49.723Z,69.40
2022-08-26T05:24:19.128Z,69.40
2022-08-26T05:26:48.266Z,69.40
2022-08-26T05:29:18.732Z,69.40
2022-08-26T05:31:48.322Z,69.50
2022-08-26T05:34:18.936Z,69.50
2022-08-26T05:36:48.950Z,69.20
2022-08-26T05:39:17.529Z,69.70
2022-08-26T05:41:45.943Z,69.80
2022-08-26T05:44:19.279Z,69.60
2022-08-26T05:46:48.137Z,69.30
2022-08-26T05:49:20.453Z,69.20
2022-08-26T05:51:51.033Z,69.20
2022-08-26T05:54:21.906Z,69.20
2022-08-26T05:56:51.189Z,69.20
2022-08-26T05:59:21.390Z,69.10
2022-08-26T06:01:56.905Z,69.20
2022-08-26T06:04:27.572Z,69.10
2022-08-26T06:06:58.173Z,69.10
2022-08-26T06:09:27.052Z,69.10
2022-08-26T06:11:56.074Z,69.10
2022-08-26T06:14:27.091Z,68.90
2022-08-26T06:16:55.716Z,68.90
2022-08-26T06:19:24.219Z,68.70
2022-08-26T06:21:55.060Z,68.50
2022-08-26T06:24:41.449Z,68.50
2022-08-26T06:27:13.881Z,68.20
2022-08-26T06:29:45.339Z,68.00
2022-08-26T06:32:13.847Z,68.10
2022-08-26T06:34:42.270Z,68.30
2022-08-26T06:37:10.760Z,67.90
2022-08-26T06:39:41.097Z,68.00
2022-08-26T06:42:11.805Z,67.90
2022-08-26T06:44:41.770Z,73.60
2022-08-26T06:47:16.046Z,71.50
2022-08-26T06:49:44.478Z,71.40
2022-08-26T06:52:13.063Z,71.40
2022-08-26T06:54:43.585Z,72.00
2022-08-26T06:57:13.112Z,72.70
2022-08-26T06:59:42.897Z,71.90
2022-08-26T07:02:13.487Z,72.10
2022-08-26T07:04:44.550Z,72.50
2022-08-26T07:07:16.918Z,73.00
2022-08-26T07:09:46.001Z,72.70
2022-08-26T07:12:14.683Z,73.90
2022-08-26T07:14:47.303Z,74.60
2022-08-26T07:17:16.752Z,74.40
2022-08-26T07:19:46.668Z,74.20
2022-08-26T07:22:15.102Z,74.90
2022-08-26T07:24:44.831Z,75.30
2022-08-26T07:27:16.129Z,74.80
2022-08-26T07:29:45.495Z,74.60
2022-08-26T07:32:16.338Z,74.20
2022-08-26T07:34:46.698Z,74.80
2022-08-26T07:37:15.450Z,75.30
2022-08-26T07:39:46.466Z,75.40
2022-08-26T07:42:20.567Z,75.90
2022-08-26T07:44:49.002Z,75.60
2022-08-26T07:47:25.710Z,76.20
2022-08-26T07:49:58.255Z,76.00
2022-08-26T07:52:29.370Z,76.00
2022-08-26T07:54:58.873Z,76.00
2022-08-26T07:57:27.508Z,75.50
2022-08-26T07:59:56.884Z,75.80
2022-08-26T08:02:27.354Z,76.10
2022-08-26T08:04:58.589Z,75.80
2022-08-26T08:07:44.940Z,76.10
2022-08-26T08:10:17.142Z,75.90
2022-08-26T08:12:46.217Z,75.40
2022-08-26T08:15:14.853Z,75.90
2022-08-26T08:17:44.181Z,76.20
2022-08-26T08:20:15.510Z,75.60
2022-08-26T08:22:44.203Z,76.10
2022-08-26T08:25:13.979Z,76.30
2022-08-26T08:27:45.237Z,76.20
2022-08-26T08:30:15.096Z,75.30
2022-08-26T08:32:49.666Z,77.30
2022-08-26T08:35:22.617Z,76.60
2022-08-26T08:37:54.530Z,77.50
2022-08-26T08:40:25.326Z,78.60
2022-08-26T08:42:59.516Z,78.20
2022-08-26T08:45:36.637Z,78.20
2022-08-26T08:48:08.237Z,78.40
2022-08-26T08:50:45.918Z,78.00
2022-08-26T08:53:22.790Z,79.00
2022-08-26T08:56:03.303Z,78.80
2022-08-26T08:58:46.198Z,78.50
2022-08-26T09:01:26.247Z,78.40
2022-08-26T09:04:17.882Z,78.60
2022-08-26T09:06:49.976Z,78.80
2022-08-26T09:09:23.841Z,78.60
2022-08-26T09:11:52.914Z,78.50
2022-08-26T09:14:21.330Z,78.00
2022-08-26T09:16:57.716Z,77.70
2022-08-26T09:19:32.278Z,77.50
2022-08-26T09:22:07.038Z,77.80
2022-08-26T09:24:42.111Z,77.30
2022-08-26T09:27:37.848Z,77.20
2022-08-26T09:30:08.143Z,76.60
2022-08-26T09:32:40.277Z,76.90
2022-08-26T09:35:12.309Z,76.90
2022-08-26T09:40:35.390Z,76.40
2022-08-26T09:43:13.683Z,76.30
2022-08-26T09:45:50.742Z,76.40
2022-08-26T09:48:30.669Z,76.40
2022-08-26T09:51:02.607Z,76.50
2022-08-26T09:53:36.670Z,76.20
2022-08-26T09:56:19.182Z,76.10
2022-08-26T09:58:49.663Z,75.80
2022-08-26T10:01:30.127Z,75.50
2022-08-26T10:04:08.159Z,75.30
2022-08-26T10:06:43.077Z,75.30
2022-08-26T10:09:17.308Z,76.20
2022-08-26T10:11:51.209Z,75.90
2022-08-26T10:14:24.527Z,76.20
2022-08-26T10:16:58.687Z,75.00
2022-08-26T10:19:53.595Z,74.30
2022-08-26T10:22:28.841Z,74.20
2022-08-26T10:25:03.945Z,74.50
2022-08-26T10:27:48.365Z,74.90
2022-08-26T10:30:28.962Z,75.10
2022-08-26T10:33:03.140Z,74.70
2022-08-26T10:35:34.021Z,74.30
2022-08-26T10:38:08.373Z,74.60
2022-08-26T10:40:51.350Z,75.00
2022-08-26T10:43:25.701Z,76.00
2022-08-26T10:45:58.581Z,76.30
2022-08-26T10:48:35.880Z,76.50
2022-08-26T10:51:05.885Z,76.50
2022-08-26T10:53:46.404Z,76.70
2022-08-26T10:56:31.650Z,76.50
2022-08-26T10:59:12.514Z,76.60
2022-08-26T11:01:51.071Z,76.30
2022-08-26T11:04:45.753Z,76.30
2022-08-26T11:07:36.417Z,76.70
2022-08-26T11:10:09.546Z,76.30
2022-08-26T11:12:58.152Z,76.00
2022-08-26T11:16:01.091Z,76.10
2022-08-26T11:18:45.052Z,75.60
2022-08-26T11:22:02.477Z,75.60
2022-08-26T11:24:46.651Z,76.00
2022-08-26T11:27:56.707Z,75.40
2022-08-26T11:30:56.877Z,75.20
2022-08-26T11:33:49.094Z,75.50
2022-08-26T11:37:00.218Z,74.60
2022-08-26T11:39:36.724Z,74.50
2022-08-26T11:42:20.717Z,74.20
2022-08-26T11:44:49.940Z,76.40
2022-08-26T11:47:29.459Z,75.90
2022-08-26T11:50:16.763Z,76.20
2022-08-26T11:52:56.481Z,75.60
2022-08-26T11:55:26.196Z,75.50
2022-08-26T11:57:57.793Z,75.10
2022-08-26T12:00:33.832Z,74.90
2022-08-26T12:03:09.495Z,75.10
2022-08-26T12:05:44.197Z,75.30
2022-08-26T12:08:16.493Z,75.50
2022-08-26T12:10:45.008Z,74.70
2022-08-26T12:13:22.996Z,74.20
2022-08-26T12:15:55.893Z,74.20
2022-08-26T12:18:28.793Z,72.80
2022-08-26T12:21:00.550Z,73.10
2022-08-26T12:23:44.034Z,72.40
2022-08-26T12:26:22.760Z,72.70
2022-08-26T12:28:55.950Z,72.20
2022-08-26T12:31:32.753Z,71.50
2022-08-26T12:34:17.588Z,71.60
2022-08-26T12:36:49.754Z,71.40
2022-08-26T12:39:30.402Z,71.10
2022-08-26T12:42:00.434Z,70.70
2022-08-26T12:44:53.293Z,70.90
2022-08-26T12:47:32.738Z,70.60
2022-08-26T12:50:19.368Z,70.20
2022-08-26T12:52:58.867Z,70.60
2022-08-26T12:55:37.395Z,69.50
2022-08-26T12:58:25.043Z,69.30
2022-08-26T13:00:55.430Z,68.50
2022-08-26T13:03:45.742Z,68.00
2022-08-26T13:06:28.069Z,66.70
2022-08-26T13:08:58.596Z,67.80
2022-08-26T13:11:33.431Z,67.20
2022-08-26T13:14:07.271Z,65.60
2022-08-26T13:16:37.267Z,65.00
2022-08-26T13:19:10.213Z,64.90
2022-08-26T13:21:43.731Z,66.20
2022-08-26T13:24:15.462Z,65.70
2022-08-26T13:26:45.968Z,63.90
2022-08-26T13:29:15.032Z,61.60
2022-08-26T13:31:45.477Z,61.50
2022-08-26T13:34:16.007Z,61.70
2022-08-26T13:36:45.867Z,62.10
2022-08-26T13:39:14.713Z,62.50
2022-08-26T13:41:43.554Z,62.20
2022-08-26T13:44:12.655Z,62.10
2022-08-26T13:46:41.610Z,61.90
2022-08-26T13:49:10.352Z,62.10
2022-08-26T13:51:39.070Z,62.70
2022-08-26T13:54:08.916Z,62.30
2022-08-26T13:56:37.829Z,62.00
2022-08-26T13:59:07.086Z,62.30
2022-08-26T14:01:39.816Z,62.50
2022-08-26T14:04:08.586Z,62.80
2022-08-26T14:06:37.523Z,62.10
2022-08-26T14:09:06.367Z,62.30
2022-08-26T14:11:50.914Z,62.60
2022-08-26T14:14:23.521Z,62.50
2022-08-26T14:16:59.989Z,62.80
2022-08-26T14:19:30.142Z,63.60
2022-08-26T14:22:01.002Z,62.90
2022-08-26T14:24:30.107Z,62.40
2022-08-26T14:27:00.056Z,62.40
2022-08-26T14:29:28.527Z,62.30
2022-08-26T14:32:00.074Z,62.40
2022-08-26T14:34:28.555Z,60.70
2022-08-26T14:36:58.625Z,60.30
2022-08-26T14:39:37.209Z,60.30
2022-08-26T14:42:07.789Z,61.20
2022-08-26T14:44:37.179Z,60.70
2022-08-26T14:47:07.868Z,61.80
2022-08-26T14:49:36.392Z,62.20
2022-08-26T14:52:05.275Z,62.10
2022-08-26T14:54:32.682Z,61.90
2022-08-26T14:57:05.020Z,61.90
2022-08-26T14:59:40.555Z,61.80
2022-08-26T15:02:13.709Z,62.00
2022-08-26T15:04:53.712Z,61.30
2022-08-26T15:07:24.808Z,60.90
2022-08-26T15:09:53.318Z,61.30
2022-08-26T15:12:21.961Z,60.60
2022-08-26T15:14:51.802Z,60.50
2022-08-26T15:17:20.239Z,61.00
2022-08-26T15:19:48.908Z,63.30
2022-08-26T15:22:17.468Z,62.90
2022-08-26T15:24:45.915Z,63.10
2022-08-26T15:27:14.569Z,62.10
2022-08-26T15:29:43.124Z,63.20
2022-08-26T15:32:13.340Z,63.30
2022-08-26T15:34:41.850Z,64.00
2022-08-26T15:37:10.384Z,64.50
2022-08-26T15:39:39.512Z,64.40
2022-08-26T15:42:08.328Z,64.40
2022-08-26T15:44:37.331Z,64.20
2022-08-26T15:47:07.471Z,64.20
2022-08-26T15:49:37.432Z,64.00
2022-08-26T15:52:06.023Z,63.30
2022-08-26T15:54:35.259Z,62.90
2022-08-26T15:57:06.204Z,59.90
2022-08-26T15:59:36.735Z,61.20
2022-08-26T16:02:05.426Z,61.30
2022-08-26T16:04:33.962Z,63.40
2022-08-26T16:07:04.946Z,64.30
2022-08-26T16:09:33.372Z,65.60
2022-08-26T16:12:01.778Z,64.60
2022-08-26T16:14:31.262Z,64.20
2022-08-26T16:16:59.703Z,63.90
2022-08-26T16:19:28.276Z,64.50
2022-08-26T16:21:56.734Z,65.10
2022-08-26T16:24:30.418Z,65.80
2022-08-26T16:26:59.188Z,66.40
2022-08-26T16:29:27.894Z,67.00
2022-08-26T16:31:56.495Z,67.40
2022-08-26T16:34:25.106Z,67.70
2022-08-26T16:36:53.855Z,67.90
2022-08-26T16:39:25.287Z,68.10
2022-08-26T16:41:58.229Z,68.10
2022-08-26T16:44:30.731Z,68.40
2022-08-26T16:47:02.322Z,68.50
2022-08-26T16:49:33.197Z,68.10
2022-08-26T16:52:01.710Z,68.50
2022-08-26T16:54:30.223Z,68.40
2022-08-26T16:57:00.124Z,68.70
2022-08-26T16:59:28.762Z,68.80
2022-08-26T17:01:57.422Z,68.80
2022-08-26T17:04:26.259Z,68.90
2022-08-26T17:06:54.833Z,67.90
2022-08-26T17:09:23.682Z,69.20
2022-08-26T17:11:52.605Z,70.20
2022-08-26T17:14:24.151Z,70.70
2022-08-26T17:16:53.666Z,70.60
2022-08-26T17:19:22.790Z,70.40
2022-08-26T17:21:51.365Z,70.70
2022-08-26T17:24:21.610Z,71.30
2022-08-26T17:26:55.673Z,70.80
2022-08-26T17:29:27.726Z,70.80
2022-08-26T17:31:56.748Z,71.40
2022-08-26T17:34:28.519Z,71.30
2022-08-26T17:36:57.149Z,71.90
2022-08-26T17:39:25.708Z,71.80
2022-08-26T17:41:54.251Z,72.20
2022-08-26T17:44:25.356Z,72.50
2022-08-26T17:46:57.752Z,72.60
2022-08-26T17:49:27.541Z,72.70
2022-08-26T17:51:58.259Z,72.50
2022-08-26T17:54:30.329Z,72.70
2022-08-26T17:57:00.562Z,72.70
2022-08-26T17:59:30.622Z,72.50
2022-08-26T18:02:00.925Z,73.10
2022-08-26T18:04:32.051Z,73.00
2022-08-26T18:07:09.587Z,72.60
2022-08-26T18:09:46.528Z,72.10
2022-08-26T18:12:15.122Z,71.60
2022-08-26T18:14:46.758Z,71.10
2022-08-26T18:17:19.380Z,70.90
2022-08-26T18:19:48.168Z,70.60
2022-08-26T18:22:16.926Z,70.50
2022-08-26T18:24:52.842Z,70.50
2022-08-26T18:27:27.263Z,70.20
2022-08-26T18:29:56.632Z,70.20
2022-08-26T18:32:26.549Z,69.80
2022-08-26T18:34:55.058Z,69.50
2022-08-26T18:37:24.905Z,69.40
2022-08-26T18:39:56.511Z,69.20
2022-08-26T18:42:24.995Z,69.10
2022-08-26T18:44:53.665Z,69.10
2022-08-26T18:47:22.801Z,69.00
2022-08-26T18:49:52.912Z,68.70
2022-08-26T18:52:23.671Z,68.80
2022-08-26T18:54:54.258Z,68.70
2022-08-26T18:57:22.743Z,68.70
2022-08-26T18:59:51.894Z,68.80
2022-08-26T19:02:20.474Z,68.60
2022-08-26T19:04:49.245Z,68.60
2022-08-26T19:07:19.179Z,68.60
2022-08-26T19:09:47.779Z,68.60
2022-08-26T19:12:22.683Z,68.60
2022-08-26T19:14:55.359Z,68.70
2022-08-26T19:17:23.922Z,68.60
2022-08-26T19:19:53.674Z,68.70
2022-08-26T19:22:23.734Z,68.60
2022-08-26T19:24:52.171Z,68.70
2022-08-26T19:27:20.677Z,68.80
2022-08-26T19:29:49.290Z,68.70
2022-08-26T19:32:18.058Z,68.80
2022-08-26T19:34:46.461Z,68.80
2022-08-26T19:37:15.227Z,68.80
2022-08-26T19:39:45.628Z,68.90
2022-08-26T19:42:14.805Z,68.90
2022-08-26T19:45:00.609Z,69.00
2022-08-26T19:47:29.215Z,68.80
2022-08-26T19:49:58.739Z,68.90
2022-08-26T19:52:29.984Z,68.90
2022-08-26T19:55:00.238Z,68.90
2022-08-26T19:57:28.698Z,69.00
2022-08-26T19:59:57.171Z,68.90
2022-08-26T20:02:26.090Z,69.10
2022-08-26T20:04:54.769Z,69.10
2022-08-26T20:07:23.293Z,69.20
2022-08-26T20:09:51.741Z,69.20
2022-08-26T20:12:21.819Z,69.20
2022-08-26T20:14:50.245Z,69.30
2022-08-26T20:17:18.641Z,69.40
2022-08-26T20:20:04.808Z,69.50
2022-08-26T20:22:34.128Z,69.50
2022-08-26T20:25:02.578Z,69.60
2022-08-26T20:27:38.228Z,69.60
2022-08-26T20:30:09.507Z,69.60
2022-08-26T20:32:38.550Z,69.70
2022-08-26T20:35:09.888Z,69.80
2022-08-26T20:37:40.697Z,69.80
2022-08-26T20:40:11.011Z,69.90
2022-08-26T20:42:41.030Z,69.80
2022-08-26T20:45:10.767Z,70.00
2022-08-26T20:47:39.288Z,70.00
2022-08-26T20:50:09.342Z,70.00
2022-08-26T20:52:37.810Z,70.00
2022-08-26T20:55:07.088Z,70.10
2022-08-26T20:57:35.541Z,70.10
2022-08-26T21:00:07.442Z,70.90
2022-08-26T21:02:36.121Z,70.10
2022-08-26T21:05:05.403Z,70.20
2022-08-26T21:07:34.175Z,70.20
2022-08-26T21:10:02.594Z,70.20
2022-08-26T21:12:31.373Z,70.30
2022-08-26T21:14:59.745Z,70.40
2022-08-26T21:17:29.628Z,70.40
2022-08-26T21:19:58.007Z,70.40
2022-08-26T21:22:26.637Z,70.40
2022-08-26T21:24:55.148Z,70.40
2022-08-26T21:27:26.573Z,70.40
2022-08-26T21:29:56.481Z,70.50
2022-08-26T21:32:25.025Z,70.50
2022-08-26T21:34:57.131Z,70.40
2022-08-26T21:37:27.041Z,70.50
2022-08-26T21:39:57.043Z,70.50
2022-08-26T21:42:27.458Z,70.50
2022-08-26T21:44:55.961Z,70.60
2022-08-26T21:47:24.965Z,70.60
2022-08-26T21:49:56.119Z,70.60
2022-08-26T21:52:26.560Z,70.60
2022-08-26T21:54:59.562Z,70.70
2022-08-26T21:57:29.839Z,70.70
2022-08-26T21:59:58.670Z,70.80
2022-08-26T22:02:27.302Z,70.70
2022-08-26T22:04:56.588Z,70.70
2022-08-26T22:07:26.406Z,70.70
2022-08-26T22:09:54.961Z,70.70
2022-08-26T22:12:23.368Z,70.80
2022-08-26T22:14:51.760Z,70.50
2022-08-26T22:17:20.273Z,70.60
2022-08-26T22:19:48.662Z,70.60
2022-08-26T22:22:17.737Z,70.70
2022-08-26T22:24:47.682Z,70.70
2022-08-26T22:27:16.095Z,70.60
2022-08-26T22:29:46.666Z,70.80
2022-08-26T22:32:15.216Z,70.70
2022-08-26T22:34:43.630Z,70.60
2022-08-26T22:37:12.805Z,70.70
2022-08-26T22:39:41.605Z,70.90
2022-08-26T22:42:11.421Z,70.80
2022-08-26T22:44:41.365Z,70.80
2022-08-26T22:47:09.801Z,70.60
2022-08-26T22:49:38.223Z,70.70
2022-08-26T22:52:06.696Z,70.90
2022-08-26T22:54:35.233Z,70.90
2022-08-26T22:57:03.679Z,70.90
2022-08-26T22:59:33.601Z,71.30
2022-08-26T23:02:02.047Z,71.00
2022-08-26T23:04:30.566Z,71.10
2022-08-26T23:06:58.949Z,71.30
2022-08-26T23:09:27.385Z,71.00
2022-08-26T23:11:56.630Z,71.10
2022-08-26T23:14:26.750Z,71.00
2022-08-26T23:16:56.659Z,70.90
2022-08-26T23:19:25.210Z,71.00
2022-08-26T23:21:53.774Z,71.80
2022-08-26T23:24:22.264Z,71.10
2022-08-26T23:26:50.684Z,71.10
2022-08-26T23:29:19.203Z,71.20
2022-08-26T23:31:47.941Z,71.30
2022-08-26T23:34:35.578Z,71.40
2022-08-26T23:37:06.682Z,71.40
2022-08-26T23:39:36.179Z,71.50
2022-08-26T23:42:06.173Z,71.50
2022-08-26T23:44:35.116Z,71.60
2022-08-26T23:47:04.392Z,71.70
2022-08-26T23:49:34.697Z,71.80
2022-08-26T23:52:20.806Z,71.70
2022-08-26T23:54:49.363Z,71.90
2022-08-26T23:57:19.339Z,71.90
2022-08-26T23:59:48.607Z,72.00
